Leonidas, Minnesota
Current Conditions -  °F | °C
As of 9:11 AM on Tuesday 21 Oct 2014 (Local Time) from KEVM Reporting Station
Overcast Overcast  
Wind Chill: 35°   Ceiling: 1600
Heat Index: 39°   Visibility: 10mi
Dew Point: 34°   Wind: 6mph
Humidity: 81%   Direction: 110°ESE
Pressure: 30.22"   Gusts: NA
Location:  47.4232°N, 92.5107°W
Report Text: KEVM 211411Z AUTO 11005KT 10SM OVC016 04/01 A3022 RMK AO2
Loading
Personal Weather Stations






























Interactive Weather Map
Tropical Storm Tracking
New forecast layout! Learn more

10-Day Weather Forecast

Advertisements
Track Severe Weather on mobile